sensor_id;sensor_type;location;lat;lon;timestamp;pressure;altitude;pressure_sealevel;temperature;humidity
30598;BME280;17365;48.878;8.334;2023-04-07T00:01:26;100113.06;;;8.90;74.66
30598;BME280;17365;48.878;8.334;2023-04-07T00:03:51;100105.38;;;8.96;75.42
30598;BME280;17365;48.878;8.334;2023-04-07T00:06:16;100109.66;;;8.94;75.69
30598;BME280;17365;48.878;8.334;2023-04-07T00:08:42;100094.19;;;8.97;76.05
30598;BME280;17365;48.878;8.334;2023-04-07T00:11:07;100090.72;;;8.95;76.28
30598;BME280;17365;48.878;8.334;2023-04-07T00:13:32;100082.88;;;8.84;77.54
30598;BME280;17365;48.878;8.334;2023-04-07T00:15:58;100085.41;;;8.83;77.32
30598;BME280;17365;48.878;8.334;2023-04-07T00:18:23;100080.13;;;8.67;78.34
30598;BME280;17365;48.878;8.334;2023-04-07T00:20:48;100071.63;;;8.82;77.30
30598;BME280;17365;48.878;8.334;2023-04-07T00:23:13;100075.81;;;8.71;78.08
30598;BME280;17365;48.878;8.334;2023-04-07T00:25:38;100072.38;;;8.67;78.01
30598;BME280;17365;48.878;8.334;2023-04-07T00:28:04;100057.72;;;8.68;77.56
30598;BME280;17365;48.878;8.334;2023-04-07T00:30:29;100062.88;;;8.65;77.77
30598;BME280;17365;48.878;8.334;2023-04-07T00:32:54;100054.34;;;8.77;77.23
30598;BME280;17365;48.878;8.334;2023-04-07T00:35:20;100051.78;;;8.80;77.46
30598;BME280;17365;48.878;8.334;2023-04-07T00:37:46;100047.38;;;8.69;77.48
30598;BME280;17365;48.878;8.334;2023-04-07T00:40:11;100053.56;;;8.87;76.86
30598;BME280;17365;48.878;8.334;2023-04-07T00:42:36;100045.75;;;8.82;77.83
30598;BME280;17365;48.878;8.334;2023-04-07T00:45:01;100057.09;;;9.01;76.62
30598;BME280;17365;48.878;8.334;2023-04-07T00:47:26;100056.03;;;8.73;77.52
30598;BME280;17365;48.878;8.334;2023-04-07T00:49:52;100050.81;;;8.70;77.43
30598;BME280;17365;48.878;8.334;2023-04-07T00:52:17;100039.69;;;8.79;77.60
30598;BME280;17365;48.878;8.334;2023-04-07T00:54:43;100037.19;;;8.91;76.67
30598;BME280;17365;48.878;8.334;2023-04-07T00:57:08;100042.47;;;9.03;76.11
30598;BME280;17365;48.878;8.334;2023-04-07T00:59:33;100038.13;;;8.96;76.13
30598;BME280;17365;48.878;8.334;2023-04-07T01:04:38;100021.88;;;9.21;74.87
30598;BME280;17365;48.878;8.334;2023-04-07T01:07:05;100026.06;;;9.01;76.04
30598;BME280;17365;48.878;8.334;2023-04-07T01:09:36;100018.31;;;9.01;75.30
30598;BME280;17365;48.878;8.334;2023-04-07T01:12:15;100014.94;;;9.14;74.99
30598;BME280;17365;48.878;8.334;2023-04-07T01:14:44;100011.41;;;8.98;75.55
30598;BME280;17365;48.878;8.334;2023-04-07T01:17:11;100009.59;;;8.90;75.47
30598;BME280;17365;48.878;8.334;2023-04-07T01:19:46;100004.28;;;8.71;76.43
30598;BME280;17365;48.878;8.334;2023-04-07T01:22:13;99997.44;;;8.77;76.23
30598;BME280;17365;48.878;8.334;2023-04-07T01:29:51;100000.97;;;8.88;74.81
30598;BME280;17365;48.878;8.334;2023-04-07T01:32:17;99994.00;;;8.81;75.64
30598;BME280;17365;48.878;8.334;2023-04-07T01:34:44;99989.66;;;8.73;76.27
30598;BME280;17365;48.878;8.334;2023-04-07T01:37:12;99984.53;;;8.81;76.22
30598;BME280;17365;48.878;8.334;2023-04-07T01:39:37;99985.44;;;8.85;75.65
30598;BME280;17365;48.878;8.334;2023-04-07T01:42:02;99982.88;;;8.88;75.29
30598;BME280;17365;48.878;8.334;2023-04-07T01:44:28;99986.31;;;8.91;74.78
30598;BME280;17365;48.878;8.334;2023-04-07T01:46:55;99980.34;;;9.00;74.39
30598;BME280;17365;48.878;8.334;2023-04-07T01:49:21;99993.22;;;8.92;74.40
30598;BME280;17365;48.878;8.334;2023-04-07T01:51:47;99990.75;;;9.08;73.92
30598;BME280;17365;48.878;8.334;2023-04-07T01:54:14;99988.22;;;9.18;72.86
30598;BME280;17365;48.878;8.334;2023-04-07T01:56:39;99977.81;;;9.08;73.74
30598;BME280;17365;48.878;8.334;2023-04-07T01:59:04;99976.91;;;9.05;72.87
30598;BME280;17365;48.878;8.334;2023-04-07T02:01:30;99981.22;;;9.03;73.12
30598;BME280;17365;48.878;8.334;2023-04-07T02:03:59;99983.72;;;8.90;73.63
30598;BME280;17365;48.878;8.334;2023-04-07T02:06:28;99993.22;;;8.89;74.54
30598;BME280;17365;48.878;8.334;2023-04-07T02:08:57;99982.94;;;9.01;73.68
30598;BME280;17365;48.878;8.334;2023-04-07T02:11:23;99982.06;;;8.95;74.42
30598;BME280;17365;48.878;8.334;2023-04-07T02:13:48;99972.59;;;9.00;74.13
30598;BME280;17365;48.878;8.334;2023-04-07T02:16:16;99971.78;;;9.10;73.47
30598;BME280;17365;48.878;8.334;2023-04-07T02:18:42;99970.00;;;8.97;73.07
30598;BME280;17365;48.878;8.334;2023-04-07T02:21:09;99977.81;;;9.06;73.24
30598;BME280;17365;48.878;8.334;2023-04-07T02:23:35;99973.56;;;9.19;72.41
30598;BME280;17365;48.878;8.334;2023-04-07T02:26:01;99969.22;;;9.13;71.91
30598;BME280;17365;48.878;8.334;2023-04-07T02:28:26;99964.09;;;9.28;71.44
30598;BME280;17365;48.878;8.334;2023-04-07T02:30:51;99971.09;;;9.46;70.41
30598;BME280;17365;48.878;8.334;2023-04-07T02:33:16;99964.13;;;9.30;70.53
30598;BME280;17365;48.878;8.334;2023-04-07T02:35:42;99959.72;;;9.15;71.16
30598;BME280;17365;48.878;8.334;2023-04-07T02:38:07;99962.25;;;9.03;72.29
30598;BME280;17365;48.878;8.334;2023-04-07T02:40:32;99962.22;;;8.95;72.45
30598;BME280;17365;48.878;8.334;2023-04-07T02:42:57;99956.25;;;9.10;71.52
30598;BME280;17365;48.878;8.334;2023-04-07T02:45:22;99961.50;;;9.24;71.08
30598;BME280;17365;48.878;8.334;2023-04-07T02:47:48;99964.91;;;9.17;71.97
30598;BME280;17365;48.878;8.334;2023-04-07T02:50:13;99957.19;;;9.26;71.27
30598;BME280;17365;48.878;8.334;2023-04-07T02:52:38;99951.19;;;9.31;71.27
30598;BME280;17365;48.878;8.334;2023-04-07T02:55:03;99948.56;;;9.21;71.32
30598;BME280;17365;48.878;8.334;2023-04-07T02:57:29;99945.09;;;9.25;70.18
30598;BME280;17365;48.878;8.334;2023-04-07T02:59:54;99954.59;;;9.24;70.39
30598;BME280;17365;48.878;8.334;2023-04-07T03:02:21;99951.19;;;9.34;70.03
30598;BME280;17365;48.878;8.334;2023-04-07T03:04:47;99950.22;;;9.08;71.34
30598;BME280;17365;48.878;8.334;2023-04-07T03:07:12;99950.19;;;9.05;71.83
30598;BME280;17365;48.878;8.334;2023-04-07T03:09:37;99940.72;;;9.09;71.92
30598;BME280;17365;48.878;8.334;2023-04-07T03:12:02;99937.28;;;9.13;71.54
30598;BME280;17365;48.878;8.334;2023-04-07T03:14:27;99938.16;;;9.12;72.18
30598;BME280;17365;48.878;8.334;2023-04-07T03:16:53;99935.44;;;8.93;72.74
30598;BME280;17365;48.878;8.334;2023-04-07T03:19:18;99939.78;;;8.94;73.57
30598;BME280;17365;48.878;8.334;2023-04-07T03:21:43;99924.34;;;9.13;72.32
30598;BME280;17365;48.878;8.334;2023-04-07T03:24:08;99926.13;;;9.23;72.41
30598;BME280;17365;48.878;8.334;2023-04-07T03:26:34;99926.09;;;9.17;72.52
30598;BME280;17365;48.878;8.334;2023-04-07T03:28:59;99925.16;;;8.99;73.15
30598;BME280;17365;48.878;8.334;2023-04-07T03:31:24;99925.03;;;8.83;74.43
30598;BME280;17365;48.878;8.334;2023-04-07T03:33:49;99932.75;;;8.72;74.98
30598;BME280;17365;48.878;8.334;2023-04-07T03:36:15;99936.16;;;8.63;75.57
30598;BME280;17365;48.878;8.334;2023-04-07T03:38:41;99934.44;;;8.62;74.79
30598;BME280;17365;48.878;8.334;2023-04-07T03:41:06;99931.69;;;8.44;75.80
30598;BME280;17365;48.878;8.334;2023-04-07T03:43:32;99932.41;;;8.28;78.55
30598;BME280;17365;48.878;8.334;2023-04-07T03:45:57;99942.03;;;8.41;78.13
30598;BME280;17365;48.878;8.334;2023-04-07T03:48:22;99928.13;;;8.30;79.21
30598;BME280;17365;48.878;8.334;2023-04-07T03:50:47;99924.94;;;8.61;77.59
30598;BME280;17365;48.878;8.334;2023-04-07T03:53:13;99933.34;;;8.36;79.79
30598;BME280;17365;48.878;8.334;2023-04-07T03:55:40;99933.44;;;8.48;79.52
30598;BME280;17365;48.878;8.334;2023-04-07T03:58:05;99934.44;;;8.65;78.01
30598;BME280;17365;48.878;8.334;2023-04-07T04:00:31;99938.88;;;8.88;76.31
30598;BME280;17365;48.878;8.334;2023-04-07T04:02:57;99933.78;;;8.98;75.72
30598;BME280;17365;48.878;8.334;2023-04-07T04:05:22;99932.06;;;8.99;76.06
30598;BME280;17365;48.878;8.334;2023-04-07T04:07:47;99930.34;;;9.05;75.55
30598;BME280;17365;48.878;8.334;2023-04-07T04:10:15;99932.09;;;9.07;75.25
30598;BME280;17365;48.878;8.334;2023-04-07T04:12:40;99927.75;;;9.02;75.51
30598;BME280;17365;48.878;8.334;2023-04-07T04:15:06;99926.88;;;8.99;75.37
30598;BME280;17365;48.878;8.334;2023-04-07T04:17:31;99919.94;;;8.92;75.24
30598;BME280;17365;48.878;8.334;2023-04-07T04:19:56;99925.09;;;8.86;75.81
30598;BME280;17365;48.878;8.334;2023-04-07T04:22:21;99925.03;;;8.73;76.11
30598;BME280;17365;48.878;8.334;2023-04-07T04:24:47;99931.06;;;8.75;76.06
30598;BME280;17365;48.878;8.334;2023-04-07T04:27:12;99926.78;;;8.82;75.97
30598;BME280;17365;48.878;8.334;2023-04-07T04:29:37;99933.66;;;8.75;75.85
30598;BME280;17365;48.878;8.334;2023-04-07T04:32:02;99932.78;;;8.80;75.66
30598;BME280;17365;48.878;8.334;2023-04-07T04:34:28;99933.66;;;8.75;76.16
30598;BME280;17365;48.878;8.334;2023-04-07T04:36:53;99940.50;;;8.70;76.92
30598;BME280;17365;48.878;8.334;2023-04-07T04:39:18;99944.72;;;8.56;77.72
30598;BME280;17365;48.878;8.334;2023-04-07T04:41:44;99939.44;;;8.44;79.10
30598;BME280;17365;48.878;8.334;2023-04-07T04:44:09;99945.66;;;8.70;77.82
30598;BME280;17365;48.878;8.334;2023-04-07T04:46:34;99948.16;;;8.58;78.29
30598;BME280;17365;48.878;8.334;2023-04-07T04:49:00;99938.50;;;8.34;80.01
30598;BME280;17365;48.878;8.334;2023-04-07T04:51:25;99943.56;;;8.24;81.05
30598;BME280;17365;48.878;8.334;2023-04-07T04:53:51;99950.47;;;8.25;80.87
30598;BME280;17365;48.878;8.334;2023-04-07T04:56:16;99948.94;;;8.43;79.29
30598;BME280;17365;48.878;8.334;2023-04-07T04:58:41;99949.78;;;8.44;79.08
30598;BME280;17365;48.878;8.334;2023-04-07T05:01:10;99955.06;;;8.56;78.43
30598;BME280;17365;48.878;8.334;2023-04-07T05:03:35;99947.31;;;8.59;78.24
30598;BME280;17365;48.878;8.334;2023-04-07T05:06:00;99955.19;;;8.76;77.40
30598;BME280;17365;48.878;8.334;2023-04-07T05:08:26;99953.25;;;8.49;79.09
30598;BME280;17365;48.878;8.334;2023-04-07T05:10:51;99959.44;;;8.66;77.85
30598;BME280;17365;48.878;8.334;2023-04-07T05:13:16;99953.44;;;8.72;77.78
30598;BME280;17365;48.878;8.334;2023-04-07T05:15:41;99955.91;;;8.58;78.54
30598;BME280;17365;48.878;8.334;2023-04-07T05:18:06;99951.66;;;8.62;78.86
30598;BME280;17365;48.878;8.334;2023-04-07T05:20:32;99954.16;;;8.51;79.39
30598;BME280;17365;48.878;8.334;2023-04-07T05:22:57;99950.59;;;8.37;79.94
30598;BME280;17365;48.878;8.334;2023-04-07T05:25:22;99956.50;;;8.27;80.65
30598;BME280;17365;48.878;8.334;2023-04-07T05:27:47;99952.06;;;8.13;81.95
30598;BME280;17365;48.878;8.334;2023-04-07T05:30:12;99956.38;;;8.10;82.81
30598;BME280;17365;48.878;8.334;2023-04-07T05:32:38;99962.66;;;8.38;80.98
30598;BME280;17365;48.878;8.334;2023-04-07T05:35:03;99958.56;;;8.64;79.40
30598;BME280;17365;48.878;8.334;2023-04-07T05:37:28;99958.56;;;8.64;79.40
30598;BME280;17365;48.878;8.334;2023-04-07T05:39:54;99969.78;;;8.65;79.29
30598;BME280;17365;48.878;8.334;2023-04-07T05:42:19;99957.00;;;8.89;78.13
30598;BME280;17365;48.878;8.334;2023-04-07T05:44:45;99963.81;;;8.75;78.95
30598;BME280;17365;48.878;8.334;2023-04-07T05:47:10;99963.06;;;8.93;78.80
30598;BME280;17365;48.878;8.334;2023-04-07T05:49:35;99960.22;;;8.56;81.12
30598;BME280;17365;48.878;8.334;2023-04-07T05:52:00;99960.22;;;8.55;81.68
30598;BME280;17365;48.878;8.334;2023-04-07T05:54:27;99955.09;;;8.61;82.01
30598;BME280;17365;48.878;8.334;2023-04-07T05:56:52;99961.88;;;8.46;83.54
30598;BME280;17365;48.878;8.334;2023-04-07T05:59:17;99944.13;;;8.98;80.78
30598;BME280;17365;48.878;8.334;2023-04-07T06:01:42;99949.41;;;9.18;80.31
30598;BME280;17365;48.878;8.334;2023-04-07T06:04:08;99950.28;;;9.26;80.07
30598;BME280;17365;48.878;8.334;2023-04-07T06:06:33;99944.34;;;9.44;79.21
30598;BME280;17365;48.878;8.334;2023-04-07T06:08:58;99941.78;;;9.62;77.82
30598;BME280;17365;48.878;8.334;2023-04-07T06:11:24;99940.13;;;9.87;76.87
30598;BME280;17365;48.878;8.334;2023-04-07T06:13:50;99932.34;;;9.80;77.66
30598;BME280;17365;48.878;8.334;2023-04-07T06:16:15;99928.91;;;9.95;76.76
30598;BME280;17365;48.878;8.334;2023-04-07T06:18:40;99933.31;;;10.32;75.15
30598;BME280;17365;48.878;8.334;2023-04-07T06:21:06;99941.00;;;10.08;75.00
30598;BME280;17365;48.878;8.334;2023-04-07T06:23:31;99934.09;;;10.02;75.02
30598;BME280;17365;48.878;8.334;2023-04-07T06:25:56;99938.47;;;10.26;73.71
30598;BME280;17365;48.878;8.334;2023-04-07T06:28:21;99938.50;;;10.31;72.60
30598;BME280;17365;48.878;8.334;2023-04-07T06:30:47;99941.94;;;10.25;73.22
30598;BME280;17365;48.878;8.334;2023-04-07T06:33:12;99932.38;;;10.18;73.70
30598;BME280;17365;48.878;8.334;2023-04-07T06:35:38;99937.56;;;10.00;75.39
30598;BME280;17365;48.878;8.334;2023-04-07T06:38:03;99941.88;;;9.90;76.10
30598;BME280;17365;48.878;8.334;2023-04-07T06:40:28;99940.16;;;10.00;76.17
30598;BME280;17365;48.878;8.334;2023-04-07T06:42:53;99942.81;;;10.33;74.36
30598;BME280;17365;48.878;8.334;2023-04-07T06:45:19;99943.63;;;10.61;73.34
30598;BME280;17365;48.878;8.334;2023-04-07T06:47:45;99943.63;;;10.61;73.38
30598;BME280;17365;48.878;8.334;2023-04-07T06:50:10;99950.53;;;10.79;72.61
30598;BME280;17365;48.878;8.334;2023-04-07T06:52:35;99945.38;;;10.67;71.43
30598;BME280;17365;48.878;8.334;2023-04-07T06:55:01;99955.69;;;11.03;70.64
30598;BME280;17365;48.878;8.334;2023-04-07T06:57:26;99948.75;;;11.04;70.01
30598;BME280;17365;48.878;8.334;2023-04-07T06:59:51;99950.47;;;11.14;69.23
30598;BME280;17365;48.878;8.334;2023-04-07T07:02:16;99954.75;;;11.23;69.90
30598;BME280;17365;48.878;8.334;2023-04-07T07:04:42;99946.94;;;11.33;69.96
30598;BME280;17365;48.878;8.334;2023-04-07T07:07:07;99945.94;;;11.54;68.67
30598;BME280;17365;48.878;8.334;2023-04-07T07:09:32;99953.97;;;10.92;69.76
30598;BME280;17365;48.878;8.334;2023-04-07T07:11:57;99950.59;;;10.42;72.05
30598;BME280;17365;48.878;8.334;2023-04-07T07:14:22;99948.72;;;11.15;70.50
30598;BME280;17365;48.878;8.334;2023-04-07T07:16:47;99953.06;;;11.06;69.88
30598;BME280;17365;48.878;8.334;2023-04-07T07:19:13;99959.22;;;10.66;70.83
30598;BME280;17365;48.878;8.334;2023-04-07T07:21:38;99963.50;;;10.74;71.08
30598;BME280;17365;48.878;8.334;2023-04-07T07:24:04;99961.78;;;10.72;71.86
30598;BME280;17365;48.878;8.334;2023-04-07T07:26:29;99962.69;;;10.66;71.09
30598;BME280;17365;48.878;8.334;2023-04-07T07:28:54;99960.06;;;10.51;72.28
30598;BME280;17365;48.878;8.334;2023-04-07T07:31:20;99963.50;;;10.99;71.13
30598;BME280;17365;48.878;8.334;2023-04-07T07:33:45;99954.78;;;11.07;70.98
30598;BME280;17365;48.878;8.334;2023-04-07T07:36:12;99962.47;;;11.41;69.32
30598;BME280;17365;48.878;8.334;2023-04-07T07:38:38;99963.34;;;11.37;68.58
30598;BME280;17365;48.878;8.334;2023-04-07T07:41:04;99956.31;;;11.60;68.39
30598;BME280;17365;48.878;8.334;2023-04-07T07:43:30;99959.56;;;12.07;66.88
30598;BME280;17365;48.878;8.334;2023-04-07T07:45:55;99963.41;;;12.70;65.11
30598;BME280;17365;48.878;8.334;2023-04-07T07:48:20;99958.94;;;12.78;63.99
30598;BME280;17365;48.878;8.334;2023-04-07T07:50:46;99968.88;;;12.38;65.04
30598;BME280;17365;48.878;8.334;2023-04-07T07:53:12;99969.69;;;12.46;66.45
30598;BME280;17365;48.878;8.334;2023-04-07T07:55:37;99975.41;;;11.52;69.03
30598;BME280;17365;48.878;8.334;2023-04-07T07:58:02;99977.66;;;12.19;66.89
30598;BME280;17365;48.878;8.334;2023-04-07T08:00:28;99978.19;;;12.64;65.86
30598;BME280;17365;48.878;8.334;2023-04-07T08:02:53;99978.50;;;12.22;65.67
30598;BME280;17365;48.878;8.334;2023-04-07T08:05:18;99981.19;;;12.15;67.02
30598;BME280;17365;48.878;8.334;2023-04-07T08:07:44;99983.16;;;11.69;67.94
30598;BME280;17365;48.878;8.334;2023-04-07T08:10:09;99988.25;;;11.91;67.61
30598;BME280;17365;48.878;8.334;2023-04-07T08:12:34;99982.28;;;11.70;68.65
30598;BME280;17365;48.878;8.334;2023-04-07T08:14:59;99989.06;;;12.01;68.30
30598;BME280;17365;48.878;8.334;2023-04-07T08:17:25;99996.78;;;12.13;66.88
30598;BME280;17365;48.878;8.334;2023-04-07T08:19:50;99986.13;;;12.45;65.74
30598;BME280;17365;48.878;8.334;2023-04-07T08:22:15;99991.34;;;12.44;64.50
30598;BME280;17365;48.878;8.334;2023-04-07T08:24:40;99987.91;;;12.42;63.27
30598;BME280;17365;48.878;8.334;2023-04-07T08:27:06;99989.84;;;12.11;64.83
30598;BME280;17365;48.878;8.334;2023-04-07T08:29:31;99991.78;;;11.72;67.20
30598;BME280;17365;48.878;8.334;2023-04-07T08:31:56;99989.84;;;12.15;66.13
30598;BME280;17365;48.878;8.334;2023-04-07T08:34:21;99989.88;;;12.12;65.88
30598;BME280;17365;48.878;8.334;2023-04-07T08:36:47;99987.19;;;12.21;65.02
30598;BME280;17365;48.878;8.334;2023-04-07T08:39:12;99992.34;;;12.29;65.65
30598;BME280;17365;48.878;8.334;2023-04-07T08:41:39;99990.63;;;12.27;65.25
30598;BME280;17365;48.878;8.334;2023-04-07T08:44:06;99999.44;;;12.04;67.03
30598;BME280;17365;48.878;8.334;2023-04-07T08:46:32;99998.59;;;12.02;67.50
30598;BME280;17365;48.878;8.334;2023-04-07T08:48:57;100007.50;;;11.37;70.25
30598;BME280;17365;48.878;8.334;2023-04-07T08:51:27;100002.16;;;11.78;68.63
30598;BME280;17365;48.878;8.334;2023-04-07T08:53:53;100007.38;;;11.72;69.52
30598;BME280;17365;48.878;8.334;2023-04-07T08:56:18;100007.44;;;11.52;70.70
30598;BME280;17365;48.878;8.334;2023-04-07T08:58:46;100007.25;;;11.98;69.81
30598;BME280;17365;48.878;8.334;2023-04-07T09:01:11;100003.56;;;12.36;68.25
30598;BME280;17365;48.878;8.334;2023-04-07T09:03:37;100013.25;;;12.09;69.06
30598;BME280;17365;48.878;8.334;2023-04-07T09:06:02;100011.63;;;11.94;69.61
30598;BME280;17365;48.878;8.334;2023-04-07T09:08:28;100014.00;;;12.31;69.07
30598;BME280;17365;48.878;8.334;2023-04-07T09:10:55;100009.28;;;12.80;67.40
30598;BME280;17365;48.878;8.334;2023-04-07T09:13:20;100021.56;;;12.63;67.31
30598;BME280;17365;48.878;8.334;2023-04-07T09:15:46;100011.50;;;12.11;69.21
30598;BME280;17365;48.878;8.334;2023-04-07T09:18:11;100015.09;;;11.95;70.19
30598;BME280;17365;48.878;8.334;2023-04-07T09:25:59;100020.34;;;11.78;70.25
30598;BME280;17365;48.878;8.334;2023-04-07T09:28:37;100010.94;;;11.42;72.17
30598;BME280;17365;48.878;8.334;2023-04-07T09:31:02;100013.50;;;11.60;71.50
30598;BME280;17365;48.878;8.334;2023-04-07T09:33:28;100017.72;;;11.87;70.90
30598;BME280;17365;48.878;8.334;2023-04-07T09:35:53;100024.53;;;12.13;70.56
30598;BME280;17365;48.878;8.334;2023-04-07T09:38:19;100028.19;;;11.61;71.72
30598;BME280;17365;48.878;8.334;2023-04-07T09:40:44;100015.97;;;11.88;70.73
30598;BME280;17365;48.878;8.334;2023-04-07T09:43:16;100020.34;;;11.77;70.40
30598;BME280;17365;48.878;8.334;2023-04-07T09:45:42;100022.91;;;11.92;69.74
30598;BME280;17365;48.878;8.334;2023-04-07T09:48:08;100035.06;;;11.78;70.04
30598;BME280;17365;48.878;8.334;2023-04-07T09:50:41;100028.09;;;11.89;69.38
30598;BME280;17365;48.878;8.334;2023-04-07T09:53:09;100037.34;;;12.40;67.25
30598;BME280;17365;48.878;8.334;2023-04-07T09:55:35;100034.47;;;12.75;66.24
30598;BME280;17365;48.878;8.334;2023-04-07T09:58:00;100033.41;;;12.98;65.25
30598;BME280;17365;48.878;8.334;2023-04-07T10:00:27;100028.91;;;13.13;64.09
30598;BME280;17365;48.878;8.334;2023-04-07T10:02:52;100027.47;;;12.83;64.85
30598;BME280;17365;48.878;8.334;2023-04-07T10:05:18;100027.47;;;12.83;64.26
30598;BME280;17365;48.878;8.334;2023-04-07T10:07:45;100029.03;;;13.04;63.83
30598;BME280;17365;48.878;8.334;2023-04-07T10:10:10;100031.94;;;13.57;62.30
30598;BME280;17365;48.878;8.334;2023-04-07T10:12:36;100025.44;;;13.91;60.67
30598;BME280;17365;48.878;8.334;2023-04-07T10:15:01;100028.44;;;12.72;63.07
30598;BME280;17365;48.878;8.334;2023-04-07T10:17:27;100027.16;;;13.17;62.21
30598;BME280;17365;48.878;8.334;2023-04-07T10:19:52;100020.84;;;13.41;61.74
30598;BME280;17365;48.878;8.334;2023-04-07T10:22:18;100025.66;;;13.76;59.36
30598;BME280;17365;48.878;8.334;2023-04-07T10:27:17;100015.22;;;13.76;59.96
30598;BME280;17365;48.878;8.334;2023-04-07T10:29:43;100019.72;;;13.63;59.20
30598;BME280;17365;48.878;8.334;2023-04-07T10:32:11;100018.47;;;13.92;58.03
30598;BME280;17365;48.878;8.334;2023-04-07T10:37:21;100022.16;;;12.94;60.30
30598;BME280;17365;48.878;8.334;2023-04-07T10:39:47;100020.22;;;13.19;60.24
30598;BME280;17365;48.878;8.334;2023-04-07T10:44:56;100021.00;;;13.99;58.63
30598;BME280;17365;48.878;8.334;2023-04-07T10:47:23;100024.03;;;13.66;57.83
30598;BME280;17365;48.878;8.334;2023-04-07T10:52:32;100013.41;;;14.43;56.65
30598;BME280;17365;48.878;8.334;2023-04-07T10:58:04;100016.28;;;14.24;54.79
30598;BME280;17365;48.878;8.334;2023-04-07T11:00:26;100008.16;;;14.98;53.06
30598;BME280;17365;48.878;8.334;2023-04-07T11:02:52;100008.41;;;15.77;52.41
30598;BME280;17365;48.878;8.334;2023-04-07T11:05:20;100012.06;;;15.68;51.48
30598;BME280;17365;48.878;8.334;2023-04-07T11:07:49;100013.13;;;15.57;50.94
30598;BME280;17365;48.878;8.334;2023-04-07T11:10:15;100005.41;;;15.04;52.18
30598;BME280;17365;48.878;8.334;2023-04-07T11:12:41;100013.25;;;15.04;52.28
30598;BME280;17365;48.878;8.334;2023-04-07T11:15:16;99999.97;;;15.18;50.75
30598;BME280;17365;48.878;8.334;2023-04-07T11:17:41;100004.94;;;15.32;51.47
30598;BME280;17365;48.878;8.334;2023-04-07T11:20:07;100001.72;;;15.16;50.66
30598;BME280;17365;48.878;8.334;2023-04-07T11:22:32;99999.50;;;14.96;52.49
30598;BME280;17365;48.878;8.334;2023-04-07T11:24:59;99994.59;;;14.21;54.25
30598;BME280;17365;48.878;8.334;2023-04-07T11:27:25;99997.19;;;14.22;53.69
30598;BME280;17365;48.878;8.334;2023-04-07T11:29:51;99998.97;;;14.20;54.00
30598;BME280;17365;48.878;8.334;2023-04-07T11:32:21;99998.34;;;14.62;52.41
30598;BME280;17365;48.878;8.334;2023-04-07T11:34:46;100001.75;;;15.59;50.36
30598;BME280;17365;48.878;8.334;2023-04-07T11:37:22;99999.44;;;14.99;52.16
30598;BME280;17365;48.878;8.334;2023-04-07T11:39:54;100005.19;;;15.64;50.65
30598;BME280;17365;48.878;8.334;2023-04-07T11:42:37;100004.19;;;15.24;52.04
30598;BME280;17365;48.878;8.334;2023-04-07T11:45:04;100008.63;;;14.71;53.07
30598;BME280;17365;48.878;8.334;2023-04-07T11:47:36;100008.72;;;15.14;53.13
30598;BME280;17365;48.878;8.334;2023-04-07T11:50:02;100003.06;;;15.82;49.85
30598;BME280;17365;48.878;8.334;2023-04-07T11:52:27;100014.66;;;15.24;50.49
30598;BME280;17365;48.878;8.334;2023-04-07T11:54:52;100003.97;;;16.19;49.57
30598;BME280;17365;48.878;8.334;2023-04-07T11:57:24;100005.47;;;16.31;48.75
30598;BME280;17365;48.878;8.334;2023-04-07T11:59:49;100001.09;;;15.48;48.40
30598;BME280;17365;48.878;8.334;2023-04-07T12:02:30;100001.50;;;15.73;49.87
30598;BME280;17365;48.878;8.334;2023-04-07T12:04:56;100012.16;;;15.64;49.55
30598;BME280;17365;48.878;8.334;2023-04-07T12:07:21;100008.84;;;15.96;48.37
30598;BME280;17365;48.878;8.334;2023-04-07T12:09:47;99997.78;;;14.95;48.96
30598;BME280;17365;48.878;8.334;2023-04-07T12:12:12;99999.50;;;15.84;50.01
30598;BME280;17365;48.878;8.334;2023-04-07T12:14:37;99997.41;;;16.01;48.91
30598;BME280;17365;48.878;8.334;2023-04-07T12:17:03;99994.53;;;16.49;48.17
30598;BME280;17365;48.878;8.334;2023-04-07T12:19:28;99993.69;;;16.49;47.64
30598;BME280;17365;48.878;8.334;2023-04-07T12:21:55;99993.63;;;15.75;49.80
30598;BME280;17365;48.878;8.334;2023-04-07T12:24:20;99996.75;;;15.92;49.45
30598;BME280;17365;48.878;8.334;2023-04-07T12:26:46;99994.50;;;15.73;49.36
30598;BME280;17365;48.878;8.334;2023-04-07T12:29:12;99993.75;;;15.24;49.56
30598;BME280;17365;48.878;8.334;2023-04-07T12:31:37;99997.47;;;15.12;49.47
30598;BME280;17365;48.878;8.334;2023-04-07T12:34:02;99991.63;;;15.44;49.66
30598;BME280;17365;48.878;8.334;2023-04-07T12:36:27;99991.72;;;15.81;49.93
30598;BME280;17365;48.878;8.334;2023-04-07T12:38:54;99995.63;;;15.63;49.86
30598;BME280;17365;48.878;8.334;2023-04-07T12:41:19;100010.91;;;14.91;50.96
30598;BME280;17365;48.878;8.334;2023-04-07T12:43:44;100013.19;;;14.58;54.45
30598;BME280;17365;48.878;8.334;2023-04-07T12:46:10;100012.59;;;14.38;54.73
30598;BME280;17365;48.878;8.334;2023-04-07T12:48:35;100007.28;;;14.44;55.33
30598;BME280;17365;48.878;8.334;2023-04-07T12:51:00;100015.81;;;14.56;54.46
30598;BME280;17365;48.878;8.334;2023-04-07T12:53:26;100022.47;;;14.19;56.18
30598;BME280;17365;48.878;8.334;2023-04-07T12:55:51;100023.78;;;14.50;54.34
30598;BME280;17365;48.878;8.334;2023-04-07T12:58:16;100025.59;;;13.79;55.74
30598;BME280;17365;48.878;8.334;2023-04-07T13:00:42;100022.81;;;13.91;56.32
30598;BME280;17365;48.878;8.334;2023-04-07T13:03:07;100024.56;;;13.91;56.17
30598;BME280;17365;48.878;8.334;2023-04-07T13:05:33;100020.59;;;14.28;53.46
30598;BME280;17365;48.878;8.334;2023-04-07T13:07:59;100016.06;;;14.38;54.22
30598;BME280;17365;48.878;8.334;2023-04-07T13:10:24;100017.59;;;14.54;52.45
30598;BME280;17365;48.878;8.334;2023-04-07T13:12:50;100019.34;;;14.54;51.29
30598;BME280;17365;48.878;8.334;2023-04-07T13:15:15;100014.72;;;15.21;49.13
30598;BME280;17365;48.878;8.334;2023-04-07T13:17:40;100016.28;;;15.31;48.96
30598;BME280;17365;48.878;8.334;2023-04-07T13:20:06;100005.03;;;15.70;49.32
30598;BME280;17365;48.878;8.334;2023-04-07T13:22:31;100015.56;;;16.08;49.01